sensor_id;sensor_type;location;lat;lon;timestamp;pressure;altitude;pressure_sealevel;temperature;humidity
80509;BME280;69838;52.602;13.434;2023-05-07T00:00:16;101745.31;;;7.22;87.88
80509;BME280;69838;52.602;13.434;2023-05-07T00:01:04;101756.88;;;7.25;87.57
80509;BME280;69838;52.602;13.434;2023-05-07T00:01:51;101737.28;;;7.19;87.35
80509;BME280;69838;52.602;13.434;2023-05-07T00:02:37;101751.44;;;7.29;87.69
80509;BME280;69838;52.602;13.434;2023-05-07T00:03:25;101732.03;;;7.14;87.30
80509;BME280;69838;52.602;13.434;2023-05-07T00:04:12;101751.56;;;7.21;87.78
80509;BME280;69838;52.602;13.434;2023-05-07T00:04:58;101750.66;;;7.22;86.89
80509;BME280;69838;52.602;13.434;2023-05-07T00:05:43;101753.31;;;7.25;87.44
80509;BME280;69838;52.602;13.434;2023-05-07T00:06:29;101750.63;;;7.25;86.92
80509;BME280;69838;52.602;13.434;2023-05-07T00:07:15;101749.69;;;7.26;86.77
80509;BME280;69838;52.602;13.434;2023-05-07T00:08:01;101753.22;;;7.28;87.29
80509;BME280;69838;52.602;13.434;2023-05-07T00:08:50;101754.06;;;7.32;86.91
80509;BME280;69838;52.602;13.434;2023-05-07T00:09:35;101752.31;;;7.31;86.82
80509;BME280;69838;52.602;13.434;2023-05-07T00:10:21;101747.94;;;7.25;87.46
80509;BME280;69838;52.602;13.434;2023-05-07T00:11:06;101749.69;;;7.26;87.63
80509;BME280;69838;52.602;13.434;2023-05-07T00:11:52;101745.16;;;7.28;87.98
80509;BME280;69838;52.602;13.434;2023-05-07T00:12:37;101755.00;;;7.29;87.46
80509;BME280;69838;52.602;13.434;2023-05-07T00:13:22;101756.00;;;7.25;86.77
80509;BME280;69838;52.602;13.434;2023-05-07T00:14:07;101749.75;;;7.23;87.22
80509;BME280;69838;52.602;13.434;2023-05-07T00:14:53;101746.19;;;7.21;87.42
80509;BME280;69838;52.602;13.434;2023-05-07T00:15:38;101754.22;;;7.24;87.48
80509;BME280;69838;52.602;13.434;2023-05-07T00:16:23;101740.00;;;7.17;87.20
80509;BME280;69838;52.602;13.434;2023-05-07T00:17:09;101754.22;;;7.22;87.01
80509;BME280;69838;52.602;13.434;2023-05-07T00:17:55;101749.69;;;7.26;87.71
80509;BME280;69838;52.602;13.434;2023-05-07T00:18:40;101743.50;;;7.21;87.58
80509;BME280;69838;52.602;13.434;2023-05-07T00:19:25;101745.31;;;7.20;87.31
80509;BME280;69838;52.602;13.434;2023-05-07T00:20:11;101749.81;;;7.20;87.35
80509;BME280;69838;52.602;13.434;2023-05-07T00:20:57;101756.09;;;7.19;86.95
80509;BME280;69838;52.602;13.434;2023-05-07T00:21:42;101749.75;;;7.23;87.17
80509;BME280;69838;52.602;13.434;2023-05-07T00:22:27;101735.66;;;7.10;87.26
80509;BME280;69838;52.602;13.434;2023-05-07T00:23:15;101741.78;;;7.18;87.62
80509;BME280;69838;52.602;13.434;2023-05-07T00:24:00;101749.81;;;7.20;87.93
80509;BME280;69838;52.602;13.434;2023-05-07T00:24:45;101750.75;;;7.17;87.33
80509;BME280;69838;52.602;13.434;2023-05-07T00:25:30;101733.13;;;7.02;87.47
80509;BME280;69838;52.602;13.434;2023-05-07T00:26:16;101742.81;;;7.11;87.54
80509;BME280;69838;52.602;13.434;2023-05-07T00:27:01;101740.28;;;7.03;87.64
80509;BME280;69838;52.602;13.434;2023-05-07T00:27:46;101746.50;;;7.05;87.97
80509;BME280;69838;52.602;13.434;2023-05-07T00:28:31;101735.06;;;6.93;87.77
80509;BME280;69838;52.602;13.434;2023-05-07T00:29:17;101748.47;;;6.94;88.07
80509;BME280;69838;52.602;13.434;2023-05-07T00:30:02;101742.25;;;6.92;88.19
80509;BME280;69838;52.602;13.434;2023-05-07T00:30:48;101744.06;;;6.90;88.35
80509;BME280;69838;52.602;13.434;2023-05-07T00:31:33;101747.59;;;6.94;88.42
80509;BME280;69838;52.602;13.434;2023-05-07T00:32:18;101752.09;;;6.92;88.17
80509;BME280;69838;52.602;13.434;2023-05-07T00:33:03;101744.91;;;6.94;87.95
80509;BME280;69838;52.602;13.434;2023-05-07T00:33:49;101728.88;;;6.89;88.63
80509;BME280;69838;52.602;13.434;2023-05-07T00:34:34;101736.06;;;6.87;88.16
80509;BME280;69838;52.602;13.434;2023-05-07T00:35:19;101743.19;;;6.91;88.15
80509;BME280;69838;52.602;13.434;2023-05-07T00:36:05;101742.38;;;6.86;88.38
80509;BME280;69838;52.602;13.434;2023-05-07T00:36:50;101740.50;;;6.90;88.73
80509;BME280;69838;52.602;13.434;2023-05-07T00:37:35;101744.94;;;6.92;88.21
80509;BME280;69838;52.602;13.434;2023-05-07T00:38:21;101751.16;;;6.94;88.39
80509;BME280;69838;52.602;13.434;2023-05-07T00:39:06;101743.19;;;6.91;88.47
80509;BME280;69838;52.602;13.434;2023-05-07T00:39:51;101739.72;;;6.83;88.01
80509;BME280;69838;52.602;13.434;2023-05-07T00:40:37;101746.72;;;6.93;88.55
80509;BME280;69838;52.602;13.434;2023-05-07T00:41:22;101750.25;;;6.95;87.96
80509;BME280;69838;52.602;13.434;2023-05-07T00:42:07;101751.16;;;6.94;88.20
80509;BME280;69838;52.602;13.434;2023-05-07T00:42:53;101737.81;;;6.90;88.30
80509;BME280;69838;52.602;13.434;2023-05-07T00:43:41;101728.94;;;6.86;88.50
80509;BME280;69838;52.602;13.434;2023-05-07T00:44:27;101730.69;;;6.87;88.53
80509;BME280;69838;52.602;13.434;2023-05-07T00:45:13;101740.41;;;6.94;88.33
80509;BME280;69838;52.602;13.434;2023-05-07T00:45:59;101739.59;;;6.89;88.42
80509;BME280;69838;52.602;13.434;2023-05-07T00:46:44;101739.59;;;6.89;88.09
80509;BME280;69838;52.602;13.434;2023-05-07T00:47:34;101741.38;;;6.90;88.51
80509;BME280;69838;52.602;13.434;2023-05-07T00:48:20;101757.44;;;6.93;87.94
80509;BME280;69838;52.602;13.434;2023-05-07T00:49:06;101744.03;;;6.93;88.09
80509;BME280;69838;52.602;13.434;2023-05-07T00:49:52;101737.84;;;6.88;88.63
80509;BME280;69838;52.602;13.434;2023-05-07T00:50:37;101751.13;;;6.96;89.21
80509;BME280;69838;52.602;13.434;2023-05-07T00:51:25;101752.91;;;6.98;88.60
80509;BME280;69838;52.602;13.434;2023-05-07T00:52:14;101755.50;;;7.01;88.50
80509;BME280;69838;52.602;13.434;2023-05-07T00:53:00;101747.47;;;7.00;87.92
80509;BME280;69838;52.602;13.434;2023-05-07T00:53:46;101742.19;;;6.95;88.14
80509;BME280;69838;52.602;13.434;2023-05-07T00:54:32;101740.38;;;6.96;88.45
80509;BME280;69838;52.602;13.434;2023-05-07T00:55:18;101754.63;;;7.01;88.26
80509;BME280;69838;52.602;13.434;2023-05-07T00:56:05;101742.09;;;7.00;88.32
80509;BME280;69838;52.602;13.434;2023-05-07T00:56:51;101748.28;;;7.05;88.13
80509;BME280;69838;52.602;13.434;2023-05-07T00:57:37;101753.63;;;7.06;87.40
80509;BME280;69838;52.602;13.434;2023-05-07T00:58:24;101747.44;;;7.01;87.98
80509;BME280;69838;52.602;13.434;2023-05-07T00:59:10;101741.19;;;7.02;87.52
80509;BME280;69838;52.602;13.434;2023-05-07T00:59:55;101757.13;;;7.12;87.08
80509;BME280;69838;52.602;13.434;2023-05-07T01:00:41;101750.88;;;7.11;87.13
80509;BME280;69838;52.602;13.434;2023-05-07T01:01:26;101749.09;;;7.10;87.25
80509;BME280;69838;52.602;13.434;2023-05-07T01:02:11;101757.03;;;7.18;87.41
80509;BME280;69838;52.602;13.434;2023-05-07T01:02:57;101754.38;;;7.15;87.85
80509;BME280;69838;52.602;13.434;2023-05-07T01:03:43;101742.03;;;7.04;87.72
80509;BME280;69838;52.602;13.434;2023-05-07T01:04:28;101745.59;;;7.05;87.08
80509;BME280;69838;52.602;13.434;2023-05-07T01:05:15;101754.44;;;7.12;86.90
80509;BME280;69838;52.602;13.434;2023-05-07T01:06:02;101752.69;;;7.11;86.95
80509;BME280;69838;52.602;13.434;2023-05-07T01:06:49;101738.41;;;7.07;87.38
80509;BME280;69838;52.602;13.434;2023-05-07T01:07:35;101747.25;;;7.12;87.87
80509;BME280;69838;52.602;13.434;2023-05-07T01:08:22;101755.28;;;7.14;87.17
80509;BME280;69838;52.602;13.434;2023-05-07T01:09:07;101752.63;;;7.12;87.08
80509;BME280;69838;52.602;13.434;2023-05-07T01:09:54;101748.22;;;7.08;87.22
80509;BME280;69838;52.602;13.434;2023-05-07T01:10:39;101749.19;;;7.05;87.62
80509;BME280;69838;52.602;13.434;2023-05-07T01:11:28;101740.31;;;7.02;87.49
80509;BME280;69838;52.602;13.434;2023-05-07T01:12:13;101737.69;;;6.97;87.88
80509;BME280;69838;52.602;13.434;2023-05-07T01:12:59;101736.72;;;7.01;88.15
80509;BME280;69838;52.602;13.434;2023-05-07T01:13:46;101741.19;;;7.02;87.81
80509;BME280;69838;52.602;13.434;2023-05-07T01:14:31;101741.13;;;7.05;87.64
80509;BME280;69838;52.602;13.434;2023-05-07T01:15:18;101746.47;;;7.07;88.07
80509;BME280;69838;52.602;13.434;2023-05-07T01:16:04;101732.28;;;7.00;87.92
80509;BME280;69838;52.602;13.434;2023-05-07T01:16:49;101745.56;;;7.06;87.75
80509;BME280;69838;52.602;13.434;2023-05-07T01:17:38;101738.38;;;7.08;87.79
80509;BME280;69838;52.602;13.434;2023-05-07T01:18:25;101738.41;;;7.07;87.43
80509;BME280;69838;52.602;13.434;2023-05-07T01:19:11;101747.31;;;7.11;87.19
80509;BME280;69838;52.602;13.434;2023-05-07T01:19:59;101750.00;;;7.11;87.33
80509;BME280;69838;52.602;13.434;2023-05-07T01:20:45;101750.88;;;7.11;87.36
80509;BME280;69838;52.602;13.434;2023-05-07T01:21:32;101750.88;;;7.11;87.19
80509;BME280;69838;52.602;13.434;2023-05-07T01:22:30;101736.72;;;7.00;87.49
80509;BME280;69838;52.602;13.434;2023-05-07T01:23:18;101749.09;;;7.08;87.65
80509;BME280;69838;52.602;13.434;2023-05-07T01:24:04;101757.94;;;7.15;86.87
80509;BME280;69838;52.602;13.434;2023-05-07T01:24:49;101757.13;;;7.10;86.93
80509;BME280;69838;52.602;13.434;2023-05-07T01:25:35;101744.72;;;7.04;87.12
80509;BME280;69838;52.602;13.434;2023-05-07T01:26:20;101746.53;;;7.02;86.81
80509;BME280;69838;52.602;13.434;2023-05-07T01:27:07;101765.28;;;7.05;87.03
80509;BME280;69838;52.602;13.434;2023-05-07T01:27:52;101755.50;;;7.01;87.67
80509;BME280;69838;52.602;13.434;2023-05-07T01:28:37;101760.88;;;7.01;87.73
80509;BME280;69838;52.602;13.434;2023-05-07T01:29:22;101764.47;;;7.00;88.21
80509;BME280;69838;52.602;13.434;2023-05-07T01:30:08;101766.25;;;7.01;87.93
80509;BME280;69838;52.602;13.434;2023-05-07T01:30:56;101745.81;;;6.93;87.55
80509;BME280;69838;52.602;13.434;2023-05-07T01:31:44;101753.75;;;7.00;87.27
80509;BME280;69838;52.602;13.434;2023-05-07T01:32:41;101757.25;;;7.05;88.05
80509;BME280;69838;52.602;13.434;2023-05-07T01:33:29;101753.75;;;7.00;87.17
80509;BME280;69838;52.602;13.434;2023-05-07T01:34:17;101759.81;;;7.12;86.73
80509;BME280;69838;52.602;13.434;2023-05-07T01:35:03;101765.13;;;7.15;87.36
80509;BME280;69838;52.602;13.434;2023-05-07T01:35:53;101746.41;;;7.10;87.23
80509;BME280;69838;52.602;13.434;2023-05-07T01:36:39;101746.41;;;7.08;87.14
80509;BME280;69838;52.602;13.434;2023-05-07T01:37:26;101757.97;;;7.14;86.60
80509;BME280;69838;52.602;13.434;2023-05-07T01:38:12;101757.91;;;7.17;86.78
80509;BME280;69838;52.602;13.434;2023-05-07T01:38:58;101753.44;;;7.16;87.20
80509;BME280;69838;52.602;13.434;2023-05-07T01:39:44;101762.47;;;7.13;87.02
80509;BME280;69838;52.602;13.434;2023-05-07T01:40:29;101750.88;;;7.11;87.00
80509;BME280;69838;52.602;13.434;2023-05-07T01:41:15;101762.47;;;7.13;87.33
80509;BME280;69838;52.602;13.434;2023-05-07T01:42:01;101756.25;;;7.11;87.26
80509;BME280;69838;52.602;13.434;2023-05-07T01:42:47;101765.19;;;7.10;87.11
80509;BME280;69838;52.602;13.434;2023-05-07T01:43:33;101758.09;;;7.07;86.39
80509;BME280;69838;52.602;13.434;2023-05-07T01:44:19;101759.00;;;7.06;86.93
80509;BME280;69838;52.602;13.434;2023-05-07T01:45:05;101760.72;;;7.11;86.71
80509;BME280;69838;52.602;13.434;2023-05-07T01:45:51;101766.09;;;7.11;87.14
80509;BME280;69838;52.602;13.434;2023-05-07T01:46:37;101770.56;;;7.10;87.23
80509;BME280;69838;52.602;13.434;2023-05-07T01:47:23;101764.38;;;7.05;87.22
80509;BME280;69838;52.602;13.434;2023-05-07T01:48:10;101745.81;;;6.93;86.76
80509;BME280;69838;52.602;13.434;2023-05-07T01:48:56;101767.03;;;7.08;87.29
80509;BME280;69838;52.602;13.434;2023-05-07T01:49:41;101766.16;;;7.07;87.27
80509;BME280;69838;52.602;13.434;2023-05-07T01:50:27;101769.72;;;7.08;87.06
80509;BME280;69838;52.602;13.434;2023-05-07T01:51:13;101756.44;;;6.99;87.49
80509;BME280;69838;52.602;13.434;2023-05-07T01:51:59;101756.44;;;6.99;87.44
80509;BME280;69838;52.602;13.434;2023-05-07T01:52:44;101754.66;;;6.99;87.35
80509;BME280;69838;52.602;13.434;2023-05-07T01:53:35;101768.91;;;7.01;87.16
80509;BME280;69838;52.602;13.434;2023-05-07T01:54:31;101728.88;;;6.89;87.10
80509;BME280;69838;52.602;13.434;2023-05-07T01:55:16;101770.56;;;7.10;86.72
80509;BME280;69838;52.602;13.434;2023-05-07T01:56:01;101762.59;;;7.07;87.08
80509;BME280;69838;52.602;13.434;2023-05-07T01:56:47;101765.19;;;7.10;86.86
80509;BME280;69838;52.602;13.434;2023-05-07T01:57:34;101761.69;;;7.05;86.94
80509;BME280;69838;52.602;13.434;2023-05-07T01:58:19;101773.34;;;7.07;87.61
80509;BME280;69838;52.602;13.434;2023-05-07T01:59:04;101771.47;;;7.11;86.75
80509;BME280;69838;52.602;13.434;2023-05-07T01:59:50;101766.19;;;7.04;86.48
80509;BME280;69838;52.602;13.434;2023-05-07T02:00:35;101763.50;;;7.06;86.59
80509;BME280;69838;52.602;13.434;2023-05-07T02:01:21;101750.25;;;6.95;87.22
80509;BME280;69838;52.602;13.434;2023-05-07T02:02:06;101755.50;;;7.01;86.73
80509;BME280;69838;52.602;13.434;2023-05-07T02:02:51;101757.28;;;7.02;86.53
80509;BME280;69838;52.602;13.434;2023-05-07T02:03:37;101754.56;;;7.04;86.66
80509;BME280;69838;52.602;13.434;2023-05-07T02:04:23;101767.00;;;7.10;86.38
80509;BME280;69838;52.602;13.434;2023-05-07T02:05:08;101756.53;;;6.94;86.18
80509;BME280;69838;52.602;13.434;2023-05-07T02:05:53;101768.06;;;6.99;86.60
80509;BME280;69838;52.602;13.434;2023-05-07T02:06:39;101751.13;;;6.96;86.39
80509;BME280;69838;52.602;13.434;2023-05-07T02:07:24;101761.69;;;7.05;86.30
80509;BME280;69838;52.602;13.434;2023-05-07T02:08:09;101763.47;;;7.07;86.38
80509;BME280;69838;52.602;13.434;2023-05-07T02:08:55;101755.44;;;7.04;87.51
80509;BME280;69838;52.602;13.434;2023-05-07T02:09:40;101734.22;;;6.89;86.54
80509;BME280;69838;52.602;13.434;2023-05-07T02:10:26;101761.59;;;7.11;85.95
80509;BME280;69838;52.602;13.434;2023-05-07T02:11:11;101764.28;;;7.13;86.04
80509;BME280;69838;52.602;13.434;2023-05-07T02:11:56;101764.31;;;7.10;85.95
80509;BME280;69838;52.602;13.434;2023-05-07T02:12:42;101761.59;;;7.13;86.44
80509;BME280;69838;52.602;13.434;2023-05-07T02:13:29;101767.84;;;7.12;86.12
80509;BME280;69838;52.602;13.434;2023-05-07T02:14:15;101762.59;;;7.05;86.05
80509;BME280;69838;52.602;13.434;2023-05-07T02:15:00;101756.41;;;7.02;86.11
80509;BME280;69838;52.602;13.434;2023-05-07T02:15:46;101758.25;;;6.98;85.76
80509;BME280;69838;52.602;13.434;2023-05-07T02:16:35;101761.66;;;7.08;86.05
80509;BME280;69838;52.602;13.434;2023-05-07T02:17:21;101780.41;;;7.11;86.81
80509;BME280;69838;52.602;13.434;2023-05-07T02:18:08;101755.56;;;6.98;86.46
80509;BME280;69838;52.602;13.434;2023-05-07T02:18:54;101768.88;;;7.04;86.35
80509;BME280;69838;52.602;13.434;2023-05-07T02:19:39;101763.50;;;7.06;85.98
80509;BME280;69838;52.602;13.434;2023-05-07T02:20:25;101769.81;;;7.03;86.56
80509;BME280;69838;52.602;13.434;2023-05-07T02:21:10;101767.16;;;7.02;86.35
80509;BME280;69838;52.602;13.434;2023-05-07T02:21:55;101751.09;;;6.97;85.66
80509;BME280;69838;52.602;13.434;2023-05-07T02:22:41;101762.53;;;7.08;85.68
80509;BME280;69838;52.602;13.434;2023-05-07T02:23:26;101776.75;;;7.15;86.27
80509;BME280;69838;52.602;13.434;2023-05-07T02:24:11;101764.31;;;7.10;86.01
80509;BME280;69838;52.602;13.434;2023-05-07T02:24:57;101776.75;;;7.14;85.63
80509;BME280;69838;52.602;13.434;2023-05-07T02:25:42;101779.53;;;7.11;86.33
80509;BME280;69838;52.602;13.434;2023-05-07T02:26:27;101748.59;;;6.86;86.35
80509;BME280;69838;52.602;13.434;2023-05-07T02:27:13;101760.00;;;6.99;86.06
80509;BME280;69838;52.602;13.434;2023-05-07T02:27:58;101783.13;;;7.08;86.11
80509;BME280;69838;52.602;13.434;2023-05-07T02:28:43;101778.72;;;7.05;85.97
80509;BME280;69838;52.602;13.434;2023-05-07T02:29:29;101782.25;;;7.09;85.96
80509;BME280;69838;52.602;13.434;2023-05-07T02:30:15;101784.06;;;7.07;86.02
80509;BME280;69838;52.602;13.434;2023-05-07T02:31:01;101776.97;;;7.01;85.89
80509;BME280;69838;52.602;13.434;2023-05-07T02:31:47;101777.97;;;6.96;86.30
80509;BME280;69838;52.602;13.434;2023-05-07T02:32:35;101776.97;;;7.01;85.63
80509;BME280;69838;52.602;13.434;2023-05-07T02:33:21;101776.94;;;7.04;85.70
80509;BME280;69838;52.602;13.434;2023-05-07T02:34:06;101785.81;;;7.10;85.29
80509;BME280;69838;52.602;13.434;2023-05-07T02:34:51;101772.56;;;6.99;86.20
80509;BME280;69838;52.602;13.434;2023-05-07T02:35:37;101769.03;;;6.97;85.35
80509;BME280;69838;52.602;13.434;2023-05-07T02:36:22;101783.25;;;7.02;85.85
80509;BME280;69838;52.602;13.434;2023-05-07T02:37:07;101784.94;;;7.07;85.81
80509;BME280;69838;52.602;13.434;2023-05-07T02:37:53;101772.53;;;7.00;85.90
80509;BME280;69838;52.602;13.434;2023-05-07T02:38:38;101771.59;;;7.01;86.05
80509;BME280;69838;52.602;13.434;2023-05-07T02:39:23;101788.53;;;7.06;86.10
80509;BME280;69838;52.602;13.434;2023-05-07T02:40:09;101782.34;;;7.01;85.96
80509;BME280;69838;52.602;13.434;2023-05-07T02:40:54;101783.22;;;7.03;85.55
80509;BME280;69838;52.602;13.434;2023-05-07T02:41:40;101789.47;;;7.05;85.08
80509;BME280;69838;52.602;13.434;2023-05-07T02:42:25;101783.25;;;7.02;86.11
80509;BME280;69838;52.602;13.434;2023-05-07T02:43:10;101771.72;;;6.95;85.38
80509;BME280;69838;52.602;13.434;2023-05-07T02:43:56;101797.53;;;7.04;86.08
80509;BME280;69838;52.602;13.434;2023-05-07T02:44:41;101784.13;;;7.04;86.05
80509;BME280;69838;52.602;13.434;2023-05-07T02:45:26;101771.69;;;6.98;85.75
80509;BME280;69838;52.602;13.434;2023-05-07T02:46:12;101789.47;;;7.05;85.14
80509;BME280;69838;52.602;13.434;2023-05-07T02:46:57;101781.47;;;7.01;85.29
80509;BME280;69838;52.602;13.434;2023-05-07T02:47:42;101777.06;;;6.98;85.53
80509;BME280;69838;52.602;13.434;2023-05-07T02:48:28;101787.78;;;6.98;85.14
80509;BME280;69838;52.602;13.434;2023-05-07T02:49:13;101778.84;;;6.96;85.07
80509;BME280;69838;52.602;13.434;2023-05-07T02:49:58;101791.31;;;7.02;85.36
80509;BME280;69838;52.602;13.434;2023-05-07T02:50:43;101781.50;;;6.98;84.77
80509;BME280;69838;52.602;13.434;2023-05-07T02:51:30;101794.75;;;7.08;84.94
80509;BME280;69838;52.602;13.434;2023-05-07T02:52:15;101793.00;;;7.07;84.57
80509;BME280;69838;52.602;13.434;2023-05-07T02:53:01;101774.41;;;6.95;85.08
80509;BME280;69838;52.602;13.434;2023-05-07T02:53:46;101792.22;;;7.01;85.04
80509;BME280;69838;52.602;13.434;2023-05-07T02:54:32;101791.34;;;7.00;84.87
80509;BME280;69838;52.602;13.434;2023-05-07T02:55:17;101785.97;;;6.99;85.17
80509;BME280;69838;52.602;13.434;2023-05-07T02:56:02;101798.41;;;7.04;85.92
80509;BME280;69838;52.602;13.434;2023-05-07T02:56:48;101777.13;;;6.92;84.78
80509;BME280;69838;52.602;13.434;2023-05-07T02:57:33;101796.66;;;7.03;85.23
80509;BME280;69838;52.602;13.434;2023-05-07T02:58:18;101805.50;;;7.08;84.82
80509;BME280;69838;52.602;13.434;2023-05-07T02:59:03;101797.50;;;7.05;84.58
80509;BME280;69838;52.602;13.434;2023-05-07T02:59:49;101785.06;;;7.00;84.94
80509;BME280;69838;52.602;13.434;2023-05-07T03:00:35;101801.94;;;7.06;85.24
80509;BME280;69838;52.602;13.434;2023-05-07T03:01:21;101809.09;;;7.09;85.28
80509;BME280;69838;52.602;13.434;2023-05-07T03:02:06;101796.69;;;7.02;85.70
80509;BME280;69838;52.602;13.434;2023-05-07T03:02:51;101801.25;;;6.97;84.89
80509;BME280;69838;52.602;13.434;2023-05-07T03:03:37;101791.50;;;6.91;84.86
80509;BME280;69838;52.602;13.434;2023-05-07T03:04:22;101799.44;;;6.96;84.93
80509;BME280;69838;52.602;13.434;2023-05-07T03:05:07;101795.06;;;6.90;85.09
80509;BME280;69838;52.602;13.434;2023-05-07T03:05:53;101797.69;;;6.95;85.43
80509;BME280;69838;52.602;13.434;2023-05-07T03:06:39;101798.56;;;6.95;85.06
80509;BME280;69838;52.602;13.434;2023-05-07T03:07:24;101802.13;;;6.97;84.91
80509;BME280;69838;52.602;13.434;2023-05-07T03:08:10;101783.53;;;6.85;85.26
80509;BME280;69838;52.602;13.434;2023-05-07T03:08:55;101790.59;;;6.91;85.34
80509;BME280;69838;52.602;13.434;2023-05-07T03:09:40;101800.31;;;6.96;84.94
80509;BME280;69838;52.602;13.434;2023-05-07T03:10:26;101786.16;;;6.88;84.96
80509;BME280;69838;52.602;13.434;2023-05-07T03:11:11;101786.16;;;6.88;85.34
80509;BME280;69838;52.602;13.434;2023-05-07T03:11:57;101800.28;;;6.99;85.18
80509;BME280;69838;52.602;13.434;2023-05-07T03:12:42;101803.91;;;6.98;85.63
80509;BME280;69838;52.602;13.434;2023-05-07T03:13:27;101800.31;;;6.98;84.84
80509;BME280;69838;52.602;13.434;2023-05-07T03:14:13;101807.47;;;6.99;85.05
80509;BME280;69838;52.602;13.434;2023-05-07T03:14:58;101801.25;;;6.97;85.66
80509;BME280;69838;52.602;13.434;2023-05-07T03:15:43;101801.25;;;6.97;85.09
80509;BME280;69838;52.602;13.434;2023-05-07T03:16:29;101796.78;;;6.94;85.27
80509;BME280;69838;52.602;13.434;2023-05-07T03:17:14;101802.13;;;6.96;85.39
80509;BME280;69838;52.602;13.434;2023-05-07T03:18:01;101799.44;;;6.97;85.38
80509;BME280;69838;52.602;13.434;2023-05-07T03:18:46;101794.97;;;6.96;84.96
80509;BME280;69838;52.602;13.434;2023-05-07T03:19:31;101807.47;;;6.99;84.84
80509;BME280;69838;52.602;13.434;2023-05-07T03:20:17;101801.22;;;6.98;85.58
80509;BME280;69838;52.602;13.434;2023-05-07T03:21:02;101798.53;;;6.98;84.89
80509;BME280;69838;52.602;13.434;2023-05-07T03:21:47;101799.47;;;6.94;85.02
80509;BME280;69838;52.602;13.434;2023-05-07T03:22:33;101803.00;;;6.96;84.91
80509;BME280;69838;52.602;13.434;2023-05-07T03:23:18;101812.81;;;7.00;85.34
80509;BME280;69838;52.602;13.434;2023-05-07T03:24:04;101807.44;;;7.00;84.48
80509;BME280;69838;52.602;13.434;2023-05-07T03:24:49;101803.81;;;7.01;84.84
80509;BME280;69838;52.602;13.434;2023-05-07T03:25:34;101794.97;;;6.96;84.52
80509;BME280;69838;52.602;13.434;2023-05-07T03:26:20;101808.22;;;7.07;84.36
80509;BME280;69838;52.602;13.434;2023-05-07T03:27:06;101805.66;;;6.99;84.03
80509;BME280;69838;52.602;13.434;2023-05-07T03:27:51;101814.44;;;7.11;83.80
80509;BME280;69838;52.602;13.434;2023-05-07T03:28:37;101799.38;;;7.02;84.12
80509;BME280;69838;52.602;13.434;2023-05-07T03:29:22;101813.53;;;7.10;84.31
80509;BME280;69838;52.602;13.434;2023-05-07T03:30:08;101814.47;;;7.07;84.19
80509;BME280;69838;52.602;13.434;2023-05-07T03:30:53;101815.41;;;7.05;85.01
80509;BME280;69838;52.602;13.434;2023-05-07T03:31:39;101804.75;;;7.00;85.23
80509;BME280;69838;52.602;13.434;2023-05-07T03:32:24;101806.59;;;6.97;84.83
80509;BME280;69838;52.602;13.434;2023-05-07T03:33:10;101810.94;;;7.05;84.55
80509;BME280;69838;52.602;13.434;2023-05-07T03:33:56;101820.84;;;7.02;84.89
80509;BME280;69838;52.602;13.434;2023-05-07T03:34:42;101815.47;;;7.02;84.93
80509;BME280;69838;52.602;13.434;2023-05-07T03:35:27;101798.63;;;6.92;84.97
80509;BME280;69838;52.602;13.434;2023-05-07T03:36:12;101798.56;;;6.97;84.79
80509;BME280;69838;52.602;13.434;2023-05-07T03:36:57;101818.97;;;7.07;85.01
80509;BME280;69838;52.602;13.434;2023-05-07T03:37:43;101798.56;;;6.95;84.40
80509;BME280;69838;52.602;13.434;2023-05-07T03:38:28;101802.94;;;7.02;84.64
80509;BME280;69838;52.602;13.434;2023-05-07T03:39:13;101814.53;;;7.04;84.69
80509;BME280;69838;52.602;13.434;2023-05-07T03:39:59;101820.72;;;7.10;84.15
80509;BME280;69838;52.602;13.434;2023-05-07T03:40:44;101823.44;;;7.06;84.88
80509;BME280;69838;52.602;13.434;2023-05-07T03:41:29;101812.78;;;7.03;84.47
80509;BME280;69838;52.602;13.434;2023-05-07T03:42:15;101812.69;;;7.06;84.68
80509;BME280;69838;52.602;13.434;2023-05-07T03:43:00;101814.47;;;7.07;85.25
80509;BME280;69838;52.602;13.434;2023-05-07T03:43:46;101819.91;;;7.04;84.21
80509;BME280;69838;52.602;13.434;2023-05-07T03:44:31;101809.19;;;7.01;84.50
80509;BME280;69838;52.602;13.434;2023-05-07T03:45:16;101818.19;;;7.00;84.52
80509;BME280;69838;52.602;13.434;2023-05-07T03:46:02;101809.28;;;6.98;84.39
80509;BME280;69838;52.602;13.434;2023-05-07T03:46:47;101799.56;;;6.90;85.00
80509;BME280;69838;52.602;13.434;2023-05-07T03:47:32;101819.94;;;7.01;84.55
80509;BME280;69838;52.602;13.434;2023-05-07T03:48:18;101814.69;;;6.95;84.59
80509;BME280;69838;52.602;13.434;2023-05-07T03:49:03;101807.59;;;6.91;84.67
80509;BME280;69838;52.602;13.434;2023-05-07T03:49:48;101804.88;;;6.93;84.58
80509;BME280;69838;52.602;13.434;2023-05-07T03:50:35;101812.84;;;6.97;84.67
80509;BME280;69838;52.602;13.434;2023-05-07T03:51:20;101816.41;;;6.99;84.02
80509;BME280;69838;52.602;13.434;2023-05-07T03:52:06;101813.72;;;6.99;84.29
80509;BME280;69838;52.602;13.434;2023-05-07T03:52:51;101801.47;;;6.83;85.11
80509;BME280;69838;52.602;13.434;2023-05-07T03:53:36;101812.91;;;6.94;84.76
80509;BME280;69838;52.602;13.434;2023-05-07T03:54:22;101814.72;;;6.92;84.74
80509;BME280;69838;52.602;13.434;2023-05-07T03:55:07;101811.19;;;6.90;85.38
80509;BME280;69838;52.602;13.434;2023-05-07T03:55:53;101818.34;;;6.91;84.88
80509;BME280;69838;52.602;13.434;2023-05-07T03:56:38;101823.63;;;6.94;85.15
80509;BME280;69838;52.602;13.434;2023-05-07T03:57:24;101820.94;;;6.94;84.79
80509;BME280;69838;52.602;13.434;2023-05-07T03:58:09;101826.22;;;7.02;84.63
80509;BME280;69838;52.602;13.434;2023-05-07T03:58:54;101823.56;;;7.00;85.16
80509;BME280;69838;52.602;13.434;2023-05-07T03:59:40;101812.03;;;6.92;85.03